Weather observations for the past three days for
Wendover Airport
Metric (Imperial)
Date Time (mdt) Wind (kph) Vis. (km) Weather Sky Cond. Temperature (ºC) Relative Humidity Wind Chill (°C) Heat Index (°C) Pressure Precipitation (cm)
Air Dwpt 6 hour altimeter (cm) sea level (mb) 1 hr 3 hr 6 hr
Max. Min.
02 12:56 E 13 16.09 Fair CLR 19.4 -10 13% 76.56 1019.2
02 11:56 E 17 16.09 Fair CLR 17.8 -8.9 17.8 3.9 15% 76.61 1019.9
02 10:56 E 19 16.09 Fair CLR 15.6 -8.9 18% 76.63 1020.4
02 09:56 E 15 16.09 Fair CLR 13.9 -8.3 21% 76.63 1020.2
02 08:56 NE 17 16.09 Fair CLR 11.7 -5.6 30% 76.63 1020.2
02 07:56 Calm 16.09 Fair CLR 8.3 -8.3 30% 76.63 1020.5
02 06:56 Calm 16.09 Fair CLR 5 -8.9 36% 76.58 1020.1
02 05:56 SW 7 16.09 Fair CLR 5 -8.9 10 3.9 36% 4 76.58 1019.9
02 04:56 Calm 16.09 Fair CLR 5 -10.6 32% 76.58 1019.9
02 03:56 Calm 16.09 Fair CLR 6.7 -9.4 31% 76.56 1019.5
02 02:56 Calm 16.09 Fair CLR 5 -11.1 30% 76.58 1019.9
02 01:56 Calm 16.09 Fair CLR 7.2 -10 29% 76.61 1019.9
02 00:56 Calm 16.09 Fair CLR 7.8 -10 27% 76.58 1019.9
01 23:56 W 9 16.09 Fair CLR 10 -9.4 20.6 9.4 25% 9 76.58 1019.6
01 22:56 NW 11 16.09 Fair CLR 11.1 -11.7 19% 76.56 1019.5
01 21:56 Calm 16.09 Fair CLR 15 -7.8 20% 76.56 1018.9
01 20:56 E 9 16.09 Fair CLR 16.1 -9.4 17% 76.5 1018.2
01 19:56 E 9 16.09 Fair CLR 18.3 -10 14% 76.48 1017.8
01 18:56 E 15 16.09 Fair CLR 19.4 -8.3 15% 76.48 1017.7
01 17:56 E 15 16.09 Fair CLR 20 -7.8 20.6 16.7 15% 76.5 1017.8
01 16:56 SE 15 16.09 Fair CLR 20.6 -7.8 14% 76.5 1018.0
01 15:56 SE 15 G 28 16.09 Fair CLR 19.4 -7.2 16% 76.58 1018.9
01 14:56 E 13 16.09 Fair CLR 19.4 -6.1 17% 76.61 1019.4
01 13:56 E 19 16.09 Fair CLR 18.9 -5.6 19% 76.61 1019.5
01 12:56 SE 13 16.09 Fair CLR 18.3 -3.9 22% 76.66 1020.1
01 11:56 SE 9 16.09 Fair CLR 17.2 -4.4 17.2 10 23% 76.68 1020.6
01 10:56 NE 17 G 26 16.09 Fair CLR 15.6 -3.9 26% 76.71 1021.1
01 09:56 N 13 16.09 Fair CLR 15 -3.9 27% 76.68 1020.8
01 08:56 N 22 G 30 16.09 Fair CLR 13.9 -5.6 26% 76.63 1020.3
01 07:56 Vrbl 6 16.09 Fair CLR 12.2 -7.2 25% 76.61 1019.8
01 06:56 Vrbl 7 16.09 Fair CLR 11.1 -8.9 24% 76.56 1019.2
01 05:56 N 13 16.09 Fair CLR 11.7 -10 13.9 11.7 21% 76.5 1018.2
01 04:56 N 17 16.09 Fair CLR 12.2 -10 20% 76.5 1018.0
01 03:56 N 20 16.09 Fair CLR 12.8 -10.6 19% 76.48 1017.8
01 02:56 N 13 16.09 Fair CLR 12.8 -10 20% 76.48 1017.8
01 01:56 N 22 16.09 Fair CLR 12.8 -9.4 21% 76.5 1017.9
01 00:56 N 22 16.09 Fair CLR 13.3 -9.4 20% 76.48 1017.9
30 23:56 N 22 16.09 Fair CLR 13.9 -10 18.9 12.2 18% 76.48 1017.8
30 22:56 NE 15 16.09 Mostly Cloudy BKN100 12.8 -6.7 25% 76.45 1017.7
30 21:56 NE 7 16.09 A Few Clouds FEW110 13.3 -6.7 24% 76.4 1017.2
30 20:56 E 6 16.09 Fair CLR 15 -7.2 21% 76.35 1016.3
30 19:56 Calm 16.09 Fair CLR 17.2 -7.2 18% 76.33 1016.0
30 18:56 S 9 16.09 Fair CLR 17.2 -6.7 19% 76.33 1016.2
30 17:56 Vrbl 9 16.09 Fair CLR 18.3 -6.1 19.4 15.6 19% 76.35 1016.2
30 16:56 SE 9 16.09 Fair CLR 18.3 -6.1 19% 76.35 1016.4
30 15:56 Vrbl 6 16.09 Fair CLR 18.3 -5 20% 76.4 1016.9
30 14:56 SE 20 16.09 Mostly Cloudy BKN090 18.3 -4.4 21% 76.45 1017.4
30 13:56 E 19 16.09 A Few Clouds FEW080 17.8 -3.3 24% 76.48 1017.5
30 11:56 E 13 16.09 Fair CLR 16.1 -2.8 16.7 8.9 27% 76.58 1019.1
30 10:56 E 15 16.09 A Few Clouds FEW110 15.6 -2.8 28% 76.61 1019.7
30 09:56 N 17 16.09 A Few Clouds FEW075 12.8 -2.2 36% 76.61 1020.1
30 08:56 SE 6 16.09 Partly Cloudy FEW090 SCT110 12.8 -2.2 36% 76.61 1019.9
30 07:56 Calm 16.09 Mostly Cloudy BKN085 10 -2.2 43% 76.58 1019.9
30 06:56 Calm 16.09 A Few Clouds FEW100 9.4 -2.2 44% 76.56 1019.4
30 05:56 W 7 16.09 Overcast BKN085 OVC100 10.6 -2.8 12.8 9.4 39% 76.53 1018.9
30 04:56 E 15 16.09 Fair CLR 10 -2.8 41% 8 76.56 1019.1
30 03:56 Vrbl 6 16.09 Fair CLR 11.7 -2.8 37% 76.53 1018.7
30 02:56 S 7 16.09 Mostly Cloudy BKN100 11.1 -1.7 41% 76.53 1018.8
30 01:56 Calm 16.09 Overcast OVC085 12.8 -2.8 34% 76.56 1018.6
30 00:56 Calm 16.09 Mostly Cloudy BKN095 12.2 -2.8 35% 76.56 1019.0
29 23:56 Calm 16.09 Mostly Cloudy BKN080 BKN100 13.3 -2.2 18.3 11.7 34% 76.53 1018.8
29 22:56 Calm 16.09 Mostly Cloudy BKN090 12.8 -2.8 34% 76.56 1019.2
29 21:56 Vrbl 6 16.09 Fair CLR 13.3 -2.8 33% 76.53 1019.3
29 20:56 NE 15 16.09 Partly Cloudy SCT090 14.4 -2.8 31% 76.48 1018.5
29 19:56 N 20 16.09 Mostly Cloudy BKN090 BKN100 16.7 -3.9 24% 76.43 1017.9
29 18:56 E 9 16.09 Overcast FEW070 OVC090 17.2 -5 22% 76.4 1018.2
29 17:56 SE 13 16.09 Mostly Cloudy BKN100 18.3 -5.6 19.4 15 19% 76.4 1017.6
29 16:56 Calm 16.09 Fair CLR 17.2 -5.6 21% 76.43 1018.3
29 15:56 Vrbl 9 16.09 Fair CLR 17.2 -3.9 24% 76.48 1018.8
29 14:56 NE 22 G 28 16.09 A Few Clouds FEW075 16.7 -3.3 25% 76.5 1019.1
29 13:56 SE 13 16.09 Fair CLR 18.3 -6.1 19% 76.5 1018.6
Date Time (mdt) Wind (kph) Vis. (km) Weather Sky Cond. Air Dwpt Max. Min. Relative Humidity Wind Chill (°C) Heat Index (°C) altimeter (cm) sea level (mb) 1 hr 3 hr 6 hr
6 hour
Temperature (ºC) Pressure Precipitation (cm)